createdAt,value
2022-07-29T00:02:52.009Z,1.50
2022-07-29T00:05:58.564Z,1.70
2022-07-29T00:09:19.934Z,2.00
2022-07-29T00:16:21.387Z,1.73
2022-07-29T00:19:55.432Z,1.80
2022-07-29T00:23:02.935Z,1.98
2022-07-29T00:26:44.816Z,1.58
2022-07-29T00:30:17.710Z,1.55
2022-07-29T00:33:31.529Z,1.75
2022-07-29T00:36:51.879Z,1.30
2022-07-29T00:39:57.997Z,2.22
2022-07-29T00:43:00.320Z,1.52
2022-07-29T00:46:02.684Z,2.13
2022-07-29T00:49:04.995Z,1.77
2022-07-29T00:52:10.165Z,1.52
2022-07-29T00:55:14.478Z,1.83
2022-07-29T00:58:16.877Z,2.13
2022-07-29T01:01:19.141Z,1.92
2022-07-29T01:04:21.794Z,3.20
2022-07-29T01:07:25.610Z,1.83
2022-07-29T01:10:28.428Z,1.65
2022-07-29T01:13:31.636Z,1.70
2022-07-29T01:16:37.406Z,2.13
2022-07-29T01:19:50.561Z,1.67
2022-07-29T01:23:29.828Z,1.50
2022-07-29T01:26:44.114Z,2.03
2022-07-29T01:29:50.622Z,1.65
2022-07-29T01:32:57.662Z,1.52
2022-07-29T01:36:00.495Z,1.98
2022-07-29T01:39:07.642Z,1.48
2022-07-29T01:42:15.682Z,1.38
2022-07-29T01:45:22.223Z,1.58
2022-07-29T01:48:28.728Z,1.13
2022-07-29T01:51:35.270Z,1.48
2022-07-29T01:54:43.743Z,1.67
2022-07-29T01:57:50.957Z,1.40
2022-07-29T02:00:54.940Z,1.80
2022-07-29T02:03:58.243Z,1.58
2022-07-29T02:07:03.557Z,1.95
2022-07-29T02:10:08.162Z,1.75
2022-07-29T02:13:11.400Z,1.75
2022-07-29T02:16:16.244Z,1.67
2022-07-29T02:19:19.804Z,2.00
2022-07-29T02:22:22.301Z,1.77
2022-07-29T02:25:25.648Z,1.45
2022-07-29T02:28:40.301Z,1.60
2022-07-29T02:31:44.892Z,1.50
2022-07-29T02:34:47.635Z,1.88
2022-07-29T02:38:10.267Z,1.48
2022-07-29T02:41:16.688Z,1.83
2022-07-29T02:44:20.566Z,1.70
2022-07-29T02:47:29.425Z,1.70
2022-07-29T02:50:37.531Z,1.90
2022-07-29T02:53:40.106Z,1.67
2022-07-29T02:56:43.789Z,1.60
2022-07-29T02:59:46.651Z,1.83
2022-07-29T03:02:51.959Z,1.67
2022-07-29T03:05:55.598Z,1.85
2022-07-29T03:08:58.864Z,1.90
2022-07-29T03:12:01.558Z,1.58
2022-07-29T03:15:04.647Z,2.08
2022-07-29T03:18:09.168Z,1.77
2022-07-29T03:21:12.595Z,1.70
2022-07-29T03:24:26.357Z,2.03
2022-07-29T03:27:28.591Z,1.70
2022-07-29T03:30:31.652Z,1.40
2022-07-29T03:33:35.844Z,1.85
2022-07-29T03:36:38.248Z,1.90
2022-07-29T03:39:42.190Z,2.70
2022-07-29T03:42:44.832Z,1.30
2022-07-29T03:45:51.401Z,1.60
2022-07-29T03:48:58.860Z,1.85
2022-07-29T03:52:01.228Z,1.40
2022-07-29T03:55:04.362Z,1.77
2022-07-29T03:58:10.262Z,1.67
2022-07-29T04:01:12.970Z,2.33
2022-07-29T04:04:17.193Z,1.67
2022-07-29T04:07:19.946Z,1.83
2022-07-29T04:10:31.754Z,2.13
2022-07-29T04:13:35.155Z,1.55
2022-07-29T04:16:37.424Z,2.55
2022-07-29T04:19:41.108Z,2.40
2022-07-29T04:22:43.958Z,2.03
2022-07-29T04:25:46.298Z,1.70
2022-07-29T04:28:51.076Z,1.80
2022-07-29T04:31:53.421Z,1.73
2022-07-29T04:34:57.159Z,1.83
2022-07-29T04:37:59.413Z,1.80
2022-07-29T04:41:04.499Z,1.90
2022-07-29T04:44:08.892Z,1.95
2022-07-29T04:47:14.328Z,2.17
2022-07-29T04:50:58.705Z,2.00
2022-07-29T04:54:42.175Z,1.70
2022-07-29T05:06:35.054Z,1.40
2022-07-29T05:09:37.387Z,2.22
2022-07-29T05:12:39.668Z,2.40
2022-07-29T05:15:42.172Z,1.60
2022-07-29T05:18:44.515Z,2.13
2022-07-29T05:21:48.774Z,1.90
2022-07-29T05:24:51.115Z,1.70
2022-07-29T05:27:53.828Z,1.50
2022-07-29T05:30:56.168Z,1.58
2022-07-29T05:33:58.506Z,2.13
2022-07-29T05:37:02.150Z,1.95
2022-07-29T05:40:05.534Z,1.70
2022-07-29T05:43:07.791Z,1.48
2022-07-29T05:46:10.254Z,1.92
2022-07-29T05:49:12.991Z,2.33
2022-07-29T05:52:30.687Z,1.80
2022-07-29T05:55:33.125Z,1.63
2022-07-29T05:58:35.468Z,1.58
2022-07-29T06:01:40.388Z,1.45
2022-07-29T06:04:42.947Z,1.40
2022-07-29T06:07:50.001Z,1.98
2022-07-29T06:10:53.851Z,1.88
2022-07-29T06:13:56.145Z,1.55
2022-07-29T06:16:58.619Z,1.27
2022-07-29T06:20:01.137Z,1.65
2022-07-29T06:23:05.477Z,2.30
2022-07-29T06:26:07.831Z,3.17
2022-07-29T06:29:13.793Z,1.70
2022-07-29T06:32:16.185Z,1.80
2022-07-29T06:35:38.750Z,2.00
2022-07-29T06:38:47.552Z,2.28
2022-07-29T06:41:52.934Z,1.77
2022-07-29T06:45:01.715Z,1.80
2022-07-29T06:48:06.061Z,2.10
2022-07-29T06:51:08.750Z,1.73
2022-07-29T06:54:12.571Z,1.83
2022-07-29T06:57:15.124Z,2.03
2022-07-29T07:00:17.932Z,2.55
2022-07-29T07:03:20.626Z,2.28
2022-07-29T07:06:23.063Z,2.10
2022-07-29T07:09:26.840Z,2.78
2022-07-29T07:12:42.668Z,3.00
2022-07-29T07:15:45.084Z,2.88
2022-07-29T07:18:47.428Z,2.33
2022-07-29T07:21:49.914Z,2.58
2022-07-29T07:24:53.690Z,2.75
2022-07-29T07:27:56.037Z,3.45
2022-07-29T07:30:58.547Z,4.10
2022-07-29T07:34:01.092Z,4.30
2022-07-29T07:37:03.496Z,2.55
2022-07-29T07:40:09.409Z,2.63
2022-07-29T07:43:11.827Z,2.70
2022-07-29T07:46:14.472Z,2.75
2022-07-29T07:49:16.897Z,2.78
2022-07-29T07:52:21.394Z,2.78
2022-07-29T07:55:26.212Z,2.65
2022-07-29T07:58:28.575Z,2.78
2022-07-29T08:01:31.067Z,2.33
2022-07-29T08:04:52.791Z,5.55
2022-07-29T08:07:55.251Z,3.83
2022-07-29T08:11:00.641Z,3.75
2022-07-29T08:14:05.572Z,5.72
2022-07-29T08:17:08.060Z,7.07
2022-07-29T08:20:11.184Z,8.05
2022-07-29T08:23:13.518Z,9.02
2022-07-29T08:26:17.422Z,11.60
2022-07-29T08:29:20.098Z,11.63
2022-07-29T08:32:43.791Z,11.82
2022-07-29T08:35:45.172Z,12.40
2022-07-29T08:38:47.676Z,10.98
2022-07-29T08:41:57.200Z,11.38
2022-07-29T08:45:00.122Z,8.52
2022-07-29T08:48:02.601Z,6.68
2022-07-29T08:51:05.330Z,7.13
2022-07-29T08:54:09.448Z,7.40
2022-07-29T08:57:16.162Z,6.45
2022-07-29T09:00:20.281Z,5.63
2022-07-29T09:03:25.117Z,5.82
2022-07-29T09:06:34.109Z,6.93
2022-07-29T09:09:36.493Z,4.50
2022-07-29T09:12:40.754Z,3.72
2022-07-29T09:15:43.148Z,3.78
2022-07-29T09:18:46.843Z,3.33
2022-07-29T09:22:03.107Z,3.45
2022-07-29T09:25:07.169Z,4.28
2022-07-29T09:28:12.389Z,3.33
2022-07-29T09:31:14.836Z,3.30
2022-07-29T09:34:21.731Z,7.28
2022-07-29T09:37:27.629Z,4.22
2022-07-29T09:40:30.334Z,4.28
2022-07-29T09:43:34.360Z,3.60
2022-07-29T09:46:37.174Z,3.90
2022-07-29T09:49:52.295Z,3.05
2022-07-29T09:52:54.705Z,2.25
2022-07-29T09:55:57.146Z,3.15
2022-07-29T09:59:08.068Z,3.25
2022-07-29T10:02:15.808Z,3.30
2022-07-29T10:05:24.386Z,3.50
2022-07-29T10:08:27.817Z,3.10
2022-07-29T10:11:48.361Z,2.90
2022-07-29T10:14:54.005Z,4.00
2022-07-29T10:17:59.009Z,3.15
2022-07-29T10:21:02.887Z,3.55
2022-07-29T10:24:06.353Z,3.22
2022-07-29T10:27:09.590Z,3.33
2022-07-29T10:30:15.656Z,3.70
2022-07-29T10:33:40.702Z,4.47
2022-07-29T10:36:54.479Z,4.10
2022-07-29T10:40:24.925Z,4.07
2022-07-29T10:43:31.874Z,4.03
2022-07-29T10:46:38.629Z,3.80
2022-07-29T10:49:56.521Z,3.67
2022-07-29T10:52:59.885Z,3.70
2022-07-29T10:56:06.361Z,4.75
2022-07-29T10:59:25.680Z,5.05
2022-07-29T11:02:46.631Z,3.83
2022-07-29T11:05:54.380Z,4.90
2022-07-29T11:09:34.827Z,3.88
2022-07-29T11:12:48.332Z,3.85
2022-07-29T11:15:55.060Z,3.60
2022-07-29T11:19:30.094Z,3.75
2022-07-29T11:22:34.180Z,4.38
2022-07-29T11:25:50.851Z,3.80
2022-07-29T11:29:02.212Z,3.53
2022-07-29T11:32:10.930Z,3.30
2022-07-29T11:35:37.942Z,3.75
2022-07-29T11:38:42.486Z,3.55
2022-07-29T11:41:44.862Z,4.40
2022-07-29T11:44:58.884Z,5.05
2022-07-29T11:48:28.773Z,4.63
2022-07-29T11:51:32.687Z,3.42
2022-07-29T11:54:57.562Z,4.07
2022-07-29T12:01:25.172Z,3.30
2022-07-29T12:04:31.004Z,4.22
2022-07-29T12:07:03.545Z,3.70
2022-07-29T12:07:35.698Z,3.70
2022-07-29T12:10:38.592Z,2.97
2022-07-29T12:13:41.093Z,3.25
2022-07-29T12:16:43.508Z,3.67
2022-07-29T12:19:46.433Z,3.38
2022-07-29T12:22:50.339Z,3.75
2022-07-29T12:25:53.094Z,3.75
2022-07-29T12:28:56.714Z,3.25
2022-07-29T12:31:59.300Z,3.67
2022-07-29T12:35:05.045Z,3.38
2022-07-29T12:38:12.624Z,3.45
2022-07-29T12:41:14.968Z,2.85
2022-07-29T12:44:17.292Z,3.05
2022-07-29T12:47:20.335Z,3.22
2022-07-29T12:50:26.320Z,2.38
2022-07-29T12:53:30.873Z,3.25
2022-07-29T12:56:42.741Z,2.75
2022-07-29T12:59:45.812Z,2.72
2022-07-29T13:02:56.524Z,2.40
2022-07-29T13:05:59.006Z,2.45
2022-07-29T13:09:05.481Z,3.15
2022-07-29T13:12:10.952Z,3.25
2022-07-29T13:15:14.830Z,2.78
2022-07-29T13:18:28.509Z,2.60
2022-07-29T13:21:30.914Z,2.80
2022-07-29T13:24:34.820Z,2.78
2022-07-29T13:27:39.215Z,3.83
2022-07-29T13:30:44.902Z,3.00
2022-07-29T13:33:47.291Z,5.18
2022-07-29T13:36:49.740Z,5.25
2022-07-29T13:39:55.019Z,4.68
2022-07-29T13:42:57.422Z,4.35
2022-07-29T13:45:59.777Z,4.93
2022-07-29T13:49:02.122Z,4.88
2022-07-29T13:52:08.281Z,4.10
2022-07-29T13:55:12.213Z,3.40
2022-07-29T13:58:14.530Z,3.53
2022-07-29T14:01:16.938Z,3.45
2022-07-29T14:04:19.596Z,4.78
2022-07-29T14:07:23.365Z,4.45
2022-07-29T14:10:27.335Z,4.07
2022-07-29T14:13:29.660Z,3.95
2022-07-29T14:16:32.277Z,4.60
2022-07-29T14:19:36.684Z,4.10
2022-07-29T14:22:42.642Z,4.28
2022-07-29T14:25:49.376Z,4.18
2022-07-29T14:28:51.986Z,4.78
2022-07-29T14:31:54.333Z,4.80
2022-07-29T14:34:56.789Z,4.95
2022-07-29T14:37:59.357Z,4.68
2022-07-29T14:41:03.424Z,5.10
2022-07-29T14:44:05.793Z,5.55
2022-07-29T14:47:08.447Z,4.60
2022-07-29T14:50:11.212Z,5.00
2022-07-29T14:53:14.120Z,3.72
2022-07-29T14:56:36.134Z,4.07
2022-07-29T14:59:39.647Z,3.35
2022-07-29T15:03:01.001Z,2.92
2022-07-29T15:06:04.480Z,3.00
2022-07-29T15:09:06.781Z,3.15
2022-07-29T15:12:11.478Z,3.05
2022-07-29T15:15:14.012Z,2.90
2022-07-29T15:18:16.308Z,2.97
2022-07-29T15:21:28.366Z,3.30
2022-07-29T15:24:31.063Z,2.92
2022-07-29T15:27:34.814Z,3.03
2022-07-29T15:30:41.551Z,2.85
2022-07-29T15:33:44.099Z,3.60
2022-07-29T15:36:52.649Z,3.05
2022-07-29T15:39:59.755Z,3.17
2022-07-29T15:43:06.787Z,3.03
2022-07-29T15:46:27.827Z,2.92
2022-07-29T15:49:48.245Z,3.33
2022-07-29T15:52:51.846Z,3.80
2022-07-29T15:55:54.162Z,2.60
2022-07-29T15:58:58.593Z,2.30
2022-07-29T16:02:01.014Z,2.25
2022-07-29T16:05:03.578Z,2.83
2022-07-29T16:08:06.227Z,2.30
2022-07-29T16:11:08.660Z,2.63
2022-07-29T16:14:12.503Z,2.78
2022-07-29T16:17:15.288Z,2.97
2022-07-29T16:20:17.635Z,2.45
2022-07-29T16:23:19.952Z,2.90
2022-07-29T16:26:22.342Z,2.88
2022-07-29T16:29:26.007Z,2.20
2022-07-29T16:32:28.470Z,2.03
2022-07-29T16:35:39.106Z,2.35
2022-07-29T16:38:47.270Z,2.40
2022-07-29T16:41:49.829Z,2.33
2022-07-29T16:44:53.505Z,2.13
2022-07-29T16:48:00.341Z,2.30
2022-07-29T16:51:03.645Z,2.60
2022-07-29T16:54:06.187Z,2.35
2022-07-29T16:57:08.797Z,2.58
2022-07-29T17:00:17.301Z,2.72
2022-07-29T17:03:19.651Z,2.20
2022-07-29T17:06:21.974Z,2.75
2022-07-29T17:09:24.273Z,2.65
2022-07-29T17:12:27.497Z,2.33
2022-07-29T17:15:31.146Z,2.50
2022-07-29T17:18:38.795Z,2.42
2022-07-29T17:21:46.716Z,1.80
2022-07-29T17:24:51.981Z,2.80
2022-07-29T17:28:00.495Z,2.70
2022-07-29T17:31:04.691Z,2.22
2022-07-29T17:34:07.394Z,2.58
2022-07-29T17:37:11.558Z,2.33
2022-07-29T17:40:13.828Z,3.42
2022-07-29T17:43:16.165Z,2.70
2022-07-29T17:46:21.035Z,2.13
2022-07-29T17:49:23.430Z,2.92
2022-07-29T17:52:26.277Z,2.75
2022-07-29T17:55:28.558Z,2.72
2022-07-29T17:58:31.530Z,2.92
2022-07-29T18:01:35.496Z,3.03
2022-07-29T18:04:37.831Z,3.08
2022-07-29T18:07:40.188Z,2.25
2022-07-29T18:10:42.761Z,2.78
2022-07-29T18:13:45.152Z,3.00
2022-07-29T18:16:49.007Z,3.20
2022-07-29T18:19:52.792Z,3.17
2022-07-29T18:22:55.023Z,3.40
2022-07-29T18:25:57.565Z,2.72
2022-07-29T18:29:00.073Z,3.00
2022-07-29T18:32:04.122Z,2.95
2022-07-29T18:35:07.108Z,2.65
2022-07-29T18:38:09.899Z,2.92
2022-07-29T18:41:12.248Z,3.10
2022-07-29T18:44:16.890Z,2.47
2022-07-29T18:47:21.009Z,3.13
2022-07-29T18:50:29.021Z,3.30
2022-07-29T18:53:36.909Z,2.75
2022-07-29T18:56:39.395Z,3.15
2022-07-29T18:59:43.299Z,3.63
2022-07-29T19:02:47.060Z,3.15
2022-07-29T19:05:49.606Z,3.03
2022-07-29T19:08:52.435Z,3.97
2022-07-29T19:11:56.738Z,3.95
2022-07-29T19:15:00.247Z,3.13
2022-07-29T19:18:04.556Z,3.67
2022-07-29T19:21:06.903Z,3.47
2022-07-29T19:24:15.002Z,3.50
2022-07-29T19:27:19.870Z,3.70
2022-07-29T19:30:22.259Z,3.25
2022-07-29T19:33:26.122Z,4.22
2022-07-29T19:36:28.495Z,3.08
2022-07-29T19:39:34.912Z,3.13
2022-07-29T19:42:37.626Z,4.18
2022-07-29T19:45:40.268Z,3.63
2022-07-29T19:48:44.506Z,3.13
2022-07-29T19:51:46.816Z,4.45
2022-07-29T19:54:49.213Z,4.93
2022-07-29T19:57:52.679Z,4.10
2022-07-29T20:00:55.125Z,4.18
2022-07-29T20:03:58.863Z,4.90
2022-07-29T20:07:02.026Z,4.05
2022-07-29T20:10:06.011Z,4.68
2022-07-29T20:13:08.357Z,5.32
2022-07-29T20:16:10.831Z,4.88
2022-07-29T20:19:14.829Z,8.85
2022-07-29T20:22:21.137Z,6.00
2022-07-29T20:25:24.225Z,4.13
2022-07-29T20:28:26.532Z,3.80
2022-07-29T20:31:30.533Z,4.75
2022-07-29T20:34:34.327Z,3.25
2022-07-29T20:37:56.014Z,3.78
2022-07-29T20:40:58.827Z,3.72
2022-07-29T20:44:01.487Z,3.92
2022-07-29T20:47:03.915Z,3.80
2022-07-29T20:50:10.060Z,3.33
2022-07-29T20:53:12.451Z,3.53
2022-07-29T20:56:14.902Z,3.47
2022-07-29T20:59:17.750Z,3.78
2022-07-29T21:02:20.222Z,3.53
2022-07-29T21:05:23.866Z,3.55
2022-07-29T21:08:26.898Z,3.65
2022-07-29T21:11:43.322Z,3.97
2022-07-29T21:14:47.947Z,3.40
2022-07-29T21:17:52.472Z,3.47
2022-07-29T21:20:56.430Z,3.58
2022-07-29T21:23:58.891Z,3.60
2022-07-29T21:27:21.595Z,4.70
2022-07-29T21:30:24.213Z,3.90
2022-07-29T21:33:29.964Z,3.28
2022-07-29T21:36:49.237Z,4.32
2022-07-29T21:39:51.565Z,3.53
2022-07-29T21:42:53.857Z,3.70
2022-07-29T21:45:59.360Z,3.72
2022-07-29T21:49:01.810Z,3.63
2022-07-29T21:52:07.931Z,3.95
2022-07-29T21:55:10.731Z,3.30
2022-07-29T21:58:17.447Z,3.25
2022-07-29T22:01:19.773Z,3.72
2022-07-29T22:04:22.176Z,3.40
2022-07-29T22:07:25.856Z,3.42
2022-07-29T22:10:48.089Z,3.97
2022-07-29T22:13:50.395Z,3.67
2022-07-29T22:16:52.742Z,4.13
2022-07-29T22:20:00.457Z,5.05
2022-07-29T22:23:04.047Z,4.90
2022-07-29T22:26:06.436Z,4.75
2022-07-29T22:29:08.709Z,4.50
2022-07-29T22:32:10.965Z,4.72
2022-07-29T22:35:13.244Z,6.40
2022-07-29T22:38:16.844Z,6.38
2022-07-29T22:41:21.873Z,6.38
2022-07-29T22:44:24.126Z,7.20
2022-07-29T22:47:46.285Z,6.00
2022-07-29T22:50:51.622Z,6.60
2022-07-29T22:53:55.316Z,6.75
2022-07-29T22:56:57.740Z,7.43
2022-07-29T23:00:02.243Z,4.32
2022-07-29T23:03:06.894Z,3.42
2022-07-29T23:06:09.453Z,4.00
2022-07-29T23:09:13.062Z,4.35
2022-07-29T23:12:15.382Z,4.28
2022-07-29T23:15:18.217Z,3.65
2022-07-29T23:18:20.595Z,4.88
2022-07-29T23:21:23.135Z,3.45
2022-07-29T23:24:26.799Z,4.13
2022-07-29T23:27:29.107Z,3.63
2022-07-29T23:30:31.552Z,3.72
2022-07-29T23:33:33.830Z,3.92
2022-07-29T23:36:36.141Z,4.95
2022-07-29T23:39:39.747Z,4.07
2022-07-29T23:42:42.850Z,4.60
2022-07-29T23:45:48.688Z,4.38
2022-07-29T23:48:51.257Z,4.55
2022-07-29T23:51:53.594Z,4.00
2022-07-29T23:55:38.741Z,4.63
2022-07-29T23:58:19.543Z,4.07
